Time;durP1;ratioP1;P1;durP2;ratioP2;P2;SDS_P1;SDS_P2;PMS_P1;PMS_P2;Temp;Humidity;BMP_temperature;BMP_pressure;BME280_temperature;BME280_humidity;BME280_pressure;Samples;Min_cycle;Max_cycle;Signal;HPM_P1;HPM_P2
2021/01/12 00:00:31;;;;;;;96.32;42.78;;;;;;;-3.38;79.46;100248.72;1815934;78;25679;-58
2021/01/12 00:03:00;;;;;;;108.05;47.95;;;;;;;-3.40;79.40;100244.96;1816072;78;25694;-57
2021/01/12 00:05:28;;;;;;;100.92;44.13;;;;;;;-3.42;79.44;100239.09;1816171;78;25683;-57
2021/01/12 00:07:56;;;;;;;97.78;45.38;;;;;;;-3.43;79.38;100232.69;1816165;78;26218;-51
2021/01/12 00:10:24;;;;;;;101.67;46.30;;;;;;;-3.44;79.38;100231.89;1816208;78;25803;-49
2021/01/12 00:12:54;;;;;;;101.70;45.50;;;;;;;-3.46;79.37;100222.53;1816028;78;25710;-43
2021/01/12 00:15:21;;;;;;;101.78;45.00;;;;;;;-3.48;79.37;100229.36;1816175;78;26246;-47
2021/01/12 00:17:49;;;;;;;106.85;45.85;;;;;;;-3.49;79.37;100225.12;1816183;78;25694;-54
2021/01/12 00:20:16;;;;;;;94.87;43.20;;;;;;;-3.52;79.49;100221.58;1816121;78;25754;-54
2021/01/12 00:22:43;;;;;;;99.62;43.25;;;;;;;-3.56;79.42;100219.06;1816009;78;25782;-50
2021/01/12 00:25:11;;;;;;;94.92;42.88;;;;;;;-3.53;79.38;100227.89;1816096;78;25692;-44
2021/01/12 00:27:38;;;;;;;99.60;44.75;;;;;;;-3.54;79.39;100218.35;1816190;78;25635;-48
2021/01/12 00:30:06;;;;;;;100.00;42.85;;;;;;;-3.54;79.40;100221.00;1816124;78;25571;-56
2021/01/12 00:32:33;;;;;;;103.65;42.38;;;;;;;-3.54;79.37;100213.55;1816051;78;26750;-58
2021/01/12 00:35:00;;;;;;;98.20;44.38;;;;;;;-3.55;79.38;100214.60;1816096;78;25801;-55
2021/01/12 00:37:27;;;;;;;102.10;46.35;;;;;;;-3.57;79.34;100212.17;1815845;78;25762;-56
2021/01/12 00:39:55;;;;;;;103.58;44.73;;;;;;;-3.59;79.34;100228.25;1819566;78;25734;-59
2021/01/12 00:42:22;;;;;;;99.75;45.05;;;;;;;-3.61;79.37;100225.02;1825443;78;25674;-56
2021/01/12 00:44:49;;;;;;;101.02;45.58;;;;;;;-3.61;79.38;100215.77;1825316;78;25723;-55
2021/01/12 00:47:16;;;;;;;93.00;43.95;;;;;;;-3.62;79.32;100218.10;1825299;78;26301;-55
2021/01/12 00:49:43;;;;;;;94.65;41.28;;;;;;;-3.65;79.27;100219.05;1825364;78;26358;-47
2021/01/12 00:52:11;;;;;;;99.40;43.65;;;;;;;-3.65;79.34;100213.23;1825345;78;25709;-53
2021/01/12 00:54:39;;;;;;;107.92;47.00;;;;;;;-3.68;79.30;100208.38;1825325;78;25713;-55
2021/01/12 00:57:06;;;;;;;106.72;47.73;;;;;;;-3.70;79.36;100205.16;1825352;78;26350;-46
2021/01/12 00:59:33;;;;;;;105.03;45.48;;;;;;;-3.70;79.40;100200.39;1825327;78;25702;-45
2021/01/12 01:02:03;;;;;;;102.85;48.00;;;;;;;-3.72;79.47;100193.19;1825198;78;26325;-51
2021/01/12 01:04:29;;;;;;;96.82;44.42;;;;;;;-3.74;79.57;100203.98;1825430;78;25773;-52
2021/01/12 01:06:57;;;;;;;100.00;43.68;;;;;;;-3.77;79.43;100190.67;1825347;78;25710;-57
2021/01/12 01:09:24;;;;;;;96.87;42.62;;;;;;;-3.79;79.45;100188.77;1825398;78;26723;-54
2021/01/12 01:11:51;;;;;;;101.55;45.03;;;;;;;-3.80;79.44;100204.34;1825099;78;25689;-58
2021/01/12 01:14:19;;;;;;;93.75;41.25;;;;;;;-3.82;79.40;100189.70;1826463;78;25678;-55
2021/01/12 01:16:47;;;;;;;95.20;41.85;;;;;;;-3.85;79.53;100179.56;1825000;78;25684;-58
2021/01/12 01:19:15;;;;;;;102.02;43.52;;;;;;;-3.85;79.50;100174.27;1826518;78;25643;-48
2021/01/12 01:21:49;;;;;;;95.90;43.35;;;;;;;-3.86;79.47;100177.97;1799037;78;25771;-44
2021/01/12 01:24:16;;;;;;;95.22;43.52;;;;;;;-3.87;79.52;100169.20;1826054;78;25641;-55
2021/01/12 01:26:43;;;;;;;97.55;43.70;;;;;;;-3.89;79.52;100164.66;1826560;78;25610;-57
2021/01/12 01:29:10;;;;;;;95.67;41.65;;;;;;;-3.90;79.53;100170.95;1826430;78;25673;-57
2021/01/12 01:31:42;;;;;;;87.25;41.10;;;;;;;-3.91;79.55;100161.42;1826404;78;25751;-54
2021/01/12 01:34:09;;;;;;;91.70;39.95;;;;;;;-3.92;79.57;100161.12;1826148;78;25878;-44
2021/01/12 01:36:36;;;;;;;98.75;43.55;;;;;;;-3.95;79.59;100154.45;1826282;78;25644;-44
2021/01/12 01:39:04;;;;;;;94.22;41.15;;;;;;;-3.95;79.64;100149.16;1826477;78;25572;-45
2021/01/12 01:41:31;;;;;;;88.25;40.48;;;;;;;-3.98;79.58;100142.18;1826292;78;25538;-50
2021/01/12 01:43:58;;;;;;;88.80;36.88;;;;;;;-4.00;79.67;100132.31;1826450;78;25641;-50
2021/01/12 01:46:25;;;;;;;89.10;39.08;;;;;;;-4.02;79.68;100135.69;1826145;78;26291;-45
2021/01/12 01:48:51;;;;;;;86.90;39.03;;;;;;;-4.04;79.70;100129.30;1826384;78;25556;-55
2021/01/12 01:51:18;;;;;;;88.92;39.48;;;;;;;-4.06;79.70;100127.39;1826763;78;25606;-54
2021/01/12 01:53:47;;;;;;;83.00;38.30;;;;;;;-4.09;79.67;100115.94;1826471;78;25657;-57
2021/01/12 01:56:16;;;;;;;83.60;40.03;;;;;;;-4.10;79.91;100109.05;1826877;78;26260;-48
2021/01/12 01:58:43;;;;;;;84.77;36.60;;;;;;;-4.13;79.82;100101.55;1826525;78;26021;-55
2021/01/12 02:01:11;;;;;;;89.03;39.40;;;;;;;-4.15;79.80;100095.16;1826510;78;25583;-47
2021/01/12 02:03:48;;;;;;;85.38;38.92;;;;;;;-4.16;79.98;100083.48;1826555;78;25661;-43
2021/01/12 02:06:24;;;;;;;84.20;37.90;;;;;;;-4.18;79.91;100078.94;1823965;78;25695;-45
2021/01/12 02:09:16;;;;;;;83.87;38.25;;;;;;;-4.19;79.99;100082.59;1826688;78;25926;-50
2021/01/12 02:11:47;;;;;;;80.50;35.78;;;;;;;-4.20;79.93;100091.56;1826257;78;25695;-51
2021/01/12 02:14:17;;;;;;;79.87;35.98;;;;;;;-4.23;80.00;100083.54;1826412;78;25669;-56
2021/01/12 02:16:45;;;;;;;82.47;36.80;;;;;;;-4.23;80.05;100073.50;1826754;78;25622;-54
2021/01/12 02:19:20;;;;;;;74.15;36.23;;;;;;;-4.24;80.10;100067.91;1826650;78;25610;-45
2021/01/12 02:22:07;;;;;;;85.12;38.25;;;;;;;-4.25;80.13;100057.06;1826571;78;25610;-56
2021/01/12 02:24:36;;;;;;;82.62;39.20;;;;;;;-4.27;80.19;100053.31;1826441;78;25747;-55
2021/01/12 02:27:06;;;;;;;82.47;39.10;;;;;;;-4.30;80.26;100044.50;1826830;78;25578;-47
2021/01/12 02:29:33;;;;;;;;;;;;;;;-4.32;80.36;100040.75;1829396;78;25660;-44
2021/01/12 02:32:00;;;;;;;68.80;30.68;;;;;;;-4.32;80.28;100041.27;1826530;78;25512;-44
2021/01/12 02:34:29;;;;;;;81.63;35.00;;;;;;;-4.33;80.33;100044.93;1826600;78;25595;-56
2021/01/12 02:36:57;;;;;;;62.85;26.90;;;;;;;-4.35;80.34;100046.46;1826792;78;25683;-56
2021/01/12 02:39:25;;;;;;;74.62;34.53;;;;;;;-4.34;80.38;100035.41;1798692;78;25579;-43
2021/01/12 02:41:52;;;;;;;73.50;34.38;;;;;;;-4.33;80.47;100035.16;1817710;78;25705;-56
2021/01/12 02:44:24;;;;;;;73.95;32.88;;;;;;;-4.33;80.49;100031.20;1817304;78;25595;-51
2021/01/12 02:46:55;;;;;;;84.67;34.78;;;;;;;-4.33;80.51;100022.48;1817364;78;25716;-45
2021/01/12 02:49:23;;;;;;;72.97;33.95;;;;;;;-4.34;80.42;100011.12;1817282;78;25683;-55
2021/01/12 02:51:49;;;;;;;78.45;33.23;;;;;;;-4.33;80.44;100008.75;1817282;78;25778;-51
2021/01/12 02:54:16;;;;;;;72.47;31.37;;;;;;;-4.34;80.38;100011.64;1817202;78;25714;-50
2021/01/12 02:56:43;;;;;;;80.03;35.75;;;;;;;-4.33;80.42;100002.67;1817324;78;25615;-52
2021/01/12 02:59:11;;;;;;;68.97;32.60;;;;;;;-4.33;80.32;100003.47;1817312;78;25655;-46
2021/01/12 03:01:38;;;;;;;71.62;33.10;;;;;;;-4.33;80.23;100005.31;1817312;78;26287;-54
2021/01/12 03:04:05;;;;;;;77.70;34.18;;;;;;;-4.37;80.30;99989.10;1817322;78;25708;-50
2021/01/12 03:06:32;;;;;;;72.70;33.67;;;;;;;-4.31;80.36;99992.70;1817333;78;26271;-56
2021/01/12 03:08:59;;;;;;;69.97;31.65;;;;;;;-4.30;80.40;99967.91;1817206;78;25622;-48
2021/01/12 03:11:26;;;;;;;70.00;32.73;;;;;;;-4.30;80.33;99966.59;1817344;78;25673;-55
2021/01/12 03:13:53;;;;;;;73.75;33.33;;;;;;;-4.28;80.31;99974.30;1817243;78;26208;-53
2021/01/12 03:16:20;;;;;;;68.90;31.10;;;;;;;-4.28;80.25;99965.06;1817094;78;25705;-54
2021/01/12 03:18:47;;;;;;;69.80;32.53;;;;;;;-4.28;80.27;99947.37;1817272;78;25576;-44
2021/01/12 03:21:14;;;;;;;75.85;34.45;;;;;;;-4.30;80.25;99945.47;1817217;78;25621;-56
2021/01/12 03:23:41;;;;;;;75.00;33.55;;;;;;;-4.28;80.27;99947.89;1817426;78;25595;-56
2021/01/12 03:26:08;;;;;;;74.35;34.13;;;;;;;-4.28;80.27;99938.65;1817015;78;25734;-56
2021/01/12 03:28:34;;;;;;;74.62;33.50;;;;;;;-4.27;80.28;99931.00;1817192;78;25836;-55
2021/01/12 03:31:01;;;;;;;73.83;34.53;;;;;;;-4.28;80.27;99927.56;1817398;78;25579;-48
2021/01/12 03:33:30;;;;;;;75.30;33.55;;;;;;;-4.27;80.23;99923.91;1817253;78;25716;-43
2021/01/12 03:35:57;;;;;;;68.10;32.88;;;;;;;-4.26;80.24;99908.33;1817424;78;25682;-55
2021/01/12 03:38:25;;;;;;;68.62;31.30;;;;;;;-4.26;80.20;99899.09;1817323;78;25733;-50
2021/01/12 03:40:54;;;;;;;73.50;31.90;;;;;;;-4.27;80.18;99902.78;1817057;78;25719;-48
2021/01/12 03:43:21;;;;;;;66.82;31.35;;;;;;;-4.27;80.15;99912.02;1817371;78;25678;-56
2021/01/12 03:45:48;;;;;;;67.85;32.05;;;;;;;-4.25;80.12;99900.72;1817269;78;25557;-45
2021/01/12 03:48:14;;;;;;;67.95;31.52;;;;;;;-4.25;80.06;99890.67;1817221;78;25669;-55
2021/01/12 03:50:41;;;;;;;65.03;31.15;;;;;;;-4.26;80.03;99889.05;1817356;78;26688;-43
2021/01/12 03:53:08;;;;;;;68.50;30.68;;;;;;;-4.26;80.05;99875.32;1817285;78;25576;-54
2021/01/12 03:55:34;;;;;;;63.45;30.55;;;;;;;-4.25;80.04;99868.22;1817159;78;25607;-53
2021/01/12 03:58:01;;;;;;;70.32;30.90;;;;;;;-4.27;79.98;99867.12;1817203;78;25678;-44
2021/01/12 04:00:28;;;;;;;77.80;34.18;;;;;;;-4.28;79.90;99864.17;1817281;78;25580;-51
2021/01/12 04:02:55;;;;;;;67.58;29.55;;;;;;;-4.30;79.93;99848.28;1817344;78;26624;-49
2021/01/12 04:05:22;;;;;;;62.15;28.15;;;;;;;-4.32;79.87;99834.77;1817194;78;26297;-50
2021/01/12 04:07:49;;;;;;;64.60;29.55;;;;;;;-4.32;79.93;99846.66;1817208;78;25628;-42
2021/01/12 04:10:16;;;;;;;70.08;29.63;;;;;;;-4.33;79.88;99821.78;1817273;78;25677;-42
2021/01/12 04:12:42;;;;;;;62.70;26.57;;;;;;;-4.33;79.88;99833.66;1817163;78;25608;-51
2021/01/12 04:15:11;;;;;;;57.58;27.50;;;;;;;-4.32;79.88;99839.25;1817163;78;27125;-47
2021/01/12 04:17:37;;;;;;;64.58;29.80;;;;;;;-4.34;79.88;99846.08;1817118;78;25632;-43
2021/01/12 04:20:06;;;;;;;57.65;27.52;;;;;;;-4.32;79.97;99855.89;1817295;78;26219;-43
2021/01/12 04:22:33;;;;;;;47.77;20.93;;;;;;;-4.27;79.98;99857.05;1817210;78;26216;-46
2021/01/12 04:24:59;;;;;;;59.50;26.45;;;;;;;-4.26;79.90;99843.63;1817177;78;25773;-51
2021/01/12 04:27:26;;;;;;;65.95;28.70;;;;;;;-4.25;79.83;99830.73;1817255;78;26386;-54
2021/01/12 04:29:53;;;;;;;64.53;28.83;;;;;;;-4.23;79.83;99837.91;1817168;78;25600;-53
2021/01/12 04:32:20;;;;;;;61.08;28.12;;;;;;;-4.22;79.81;99819.72;1817315;78;25618;-53
2021/01/12 04:34:46;;;;;;;58.83;27.85;;;;;;;-4.21;79.76;99817.36;1817031;78;25575;-55
2021/01/12 04:37:13;;;;;;;58.45;27.13;;;;;;;-4.18;79.73;99828.00;1817287;78;25595;-52
2021/01/12 04:39:39;;;;;;;61.15;26.75;;;;;;;-4.17;79.67;99811.11;1817194;78;26130;-43
2021/01/12 04:42:08;;;;;;;65.55;28.80;;;;;;;-4.16;79.68;99805.61;1817010;78;25571;-43
2021/01/12 04:44:34;;;;;;;57.58;26.77;;;;;;;-4.16;79.66;99802.97;1817241;78;25555;-48
2021/01/12 04:47:01;;;;;;;63.83;29.35;;;;;;;-4.14;79.65;99803.57;1817278;78;25650;-54
2021/01/12 04:49:28;;;;;;;62.33;26.75;;;;;;;-4.11;79.66;99810.75;1817170;78;25647;-55
2021/01/12 04:51:55;;;;;;;60.75;27.30;;;;;;;-4.11;79.55;99804.94;1817319;78;25960;-43
2021/01/12 04:54:34;;;;;;;57.83;26.68;;;;;;;-4.08;79.59;99807.66;1817058;78;25562;-50
2021/01/12 04:57:02;;;;;;;;;;;;;;;-4.07;79.65;99800.02;1819935;78;25844;-42
2021/01/12 04:59:33;;;;;;;51.13;22.67;;;;;;;-4.03;79.58;99798.55;1817285;78;25565;-43
2021/01/12 05:02:00;;;;;;;62.78;28.52;;;;;;;-4.03;79.58;99786.14;1817179;78;25623;-48
2021/01/12 05:04:27;;;;;;;64.25;29.05;;;;;;;-4.02;79.46;99773.72;1817246;78;25742;-44
2021/01/12 05:06:56;;;;;;;61.48;27.58;;;;;;;-4.00;79.48;99778.27;1817116;78;25614;-43
2021/01/12 05:09:23;;;;;;;63.68;28.20;;;;;;;-3.97;79.40;99765.92;1817197;78;25566;-46
2021/01/12 05:11:54;;;;;;;57.00;27.35;;;;;;;-3.96;79.50;99769.67;1817219;78;25595;-44
2021/01/12 05:14:24;;;;;;;63.52;26.25;;;;;;;-3.95;79.37;99766.01;1816068;78;25607;-55
2021/01/12 05:16:53;;;;;;;63.00;28.02;;;;;;;-3.92;79.40;99761.30;1816956;78;26942;-53
2021/01/12 05:19:31;;;;;;;56.98;26.23;;;;;;;-3.92;79.30;99756.81;1817222;78;25543;-55
2021/01/12 05:22:04;;;;;;;58.40;26.85;;;;;;;-3.89;79.35;99756.88;1817209;78;25662;-41
2021/01/12 05:24:41;;;;;;;53.13;26.27;;;;;;;-3.86;79.34;99746.66;1817129;78;26383;-55
2021/01/12 05:27:10;;;;;;;63.85;28.25;;;;;;;-3.84;79.20;99734.55;1817300;78;25592;-42
2021/01/12 05:29:39;;;;;;;;;;;;;;;-3.82;79.01;99724.55;1819990;78;25773;-56
2021/01/12 05:32:11;;;;;;;55.67;25.47;;;;;;;-3.83;79.02;99734.81;1817369;78;25580;-56
2021/01/12 05:34:39;;;;;;;59.05;26.37;;;;;;;-3.84;78.95;99718.69;1817248;78;25587;-50
2021/01/12 05:37:09;;;;;;;59.53;27.90;;;;;;;-3.83;78.92;99727.72;1816734;78;53988;-54
2021/01/12 05:39:41;;;;;;;56.70;26.60;;;;;;;-3.83;78.88;99720.28;1817483;78;25670;-50
2021/01/12 05:42:11;;;;;;;63.63;27.65;;;;;;;-3.83;79.03;99729.04;1817121;78;25743;-51
2021/01/12 05:44:40;;;;;;;58.17;27.45;;;;;;;-3.81;79.05;99723.53;1817055;78;25682;-55
2021/01/12 05:47:09;;;;;;;;;;;;;;;-3.77;79.05;99724.67;1819962;78;25678;-45
2021/01/12 05:49:39;;;;;;;56.63;24.83;;;;;;;-3.75;78.95;99725.23;1816773;78;26205;-44
2021/01/12 05:52:08;;;;;;;56.75;26.60;;;;;;;-3.75;78.91;99729.20;1817117;78;25694;-54
2021/01/12 05:54:36;;;;;;;56.40;26.65;;;;;;;-3.77;78.83;99733.39;1817211;78;25962;-55
2021/01/12 05:57:07;;;;;;;57.83;26.82;;;;;;;-3.77;78.76;99735.23;1817144;78;25640;-56
2021/01/12 05:59:37;;;;;;;59.50;26.93;;;;;;;-3.77;78.79;99719.38;1817074;78;25552;-54
2021/01/12 06:02:12;;;;;;;66.65;28.77;;;;;;;-3.77;78.82;99720.17;1817285;78;35197;-42
2021/01/12 06:04:40;;;;;;;54.80;26.70;;;;;;;-3.76;78.79;99716.52;1817088;78;25654;-47
2021/01/12 06:07:08;;;;;;;54.05;24.12;;;;;;;-3.77;78.80;99705.64;1817105;78;26191;-43
2021/01/12 06:09:36;;;;;;;58.33;27.25;;;;;;;-3.76;78.74;99699.33;1817089;78;25666;-55
2021/01/12 06:12:05;;;;;;;57.88;26.40;;;;;;;-3.76;78.75;99691.93;1817263;78;25639;-55
2021/01/12 06:14:33;;;;;;;65.87;29.45;;;;;;;-3.75;78.81;99700.12;1816837;78;25662;-51
2021/01/12 06:17:00;;;;;;;59.08;27.27;;;;;;;-3.74;78.79;99709.68;1817213;78;26250;-45
2021/01/12 06:19:30;;;;;;;64.25;29.50;;;;;;;-3.74;78.78;99704.39;1817140;78;26191;-45
2021/01/12 06:22:11;;;;;;;61.95;27.82;;;;;;;-3.73;78.84;99703.87;1817037;78;25613;-55
2021/01/12 06:24:43;;;;;;;57.83;25.68;;;;;;;-3.71;78.83;99699.16;1816816;78;25568;-48
2021/01/12 06:27:16;;;;;;;63.80;28.70;;;;;;;-3.71;78.65;99700.47;1817088;78;25632;-42
2021/01/12 06:29:49;;;;;;;61.30;29.18;;;;;;;-3.70;78.81;99681.74;1816049;78;25744;-43
2021/01/12 06:32:18;;;;;;;59.30;28.83;;;;;;;-3.67;78.79;99676.53;1817214;78;25937;-54
2021/01/12 06:34:45;;;;;;;63.80;29.52;;;;;;;-3.66;78.67;99679.44;1817135;78;25590;-54
2021/01/12 06:37:15;;;;;;;65.92;29.37;;;;;;;-3.64;78.76;99665.50;1817221;78;25619;-54
2021/01/12 06:39:45;;;;;;;63.65;30.37;;;;;;;-3.63;78.78;99659.16;1817371;78;25678;-55
2021/01/12 06:42:17;;;;;;;64.40;30.55;;;;;;;-3.58;78.84;99660.59;1817341;78;25618;-50
2021/01/12 06:44:48;;;;;;;67.17;29.63;;;;;;;-3.58;78.57;99656.10;1817353;78;25667;-49
2021/01/12 06:47:25;;;;;;;62.65;29.12;;;;;;;-3.58;78.57;99657.95;1816936;78;25654;-48
2021/01/12 06:50:19;;;;;;;63.02;29.55;;;;;;;-3.59;78.56;99646.58;1817317;78;25591;-42
2021/01/12 06:52:50;;;;;;;54.20;27.70;;;;;;;-3.55;78.71;99648.77;1817269;78;25638;-47
2021/01/12 06:55:19;;;;;;;64.70;29.63;;;;;;;-3.53;78.73;99652.77;1817363;78;25705;-42
2021/01/12 06:57:54;;;;;;;71.20;29.20;;;;;;;-3.51;78.69;99649.90;1817363;78;27897;-46
2021/01/12 07:00:22;;;;;;;64.90;29.95;;;;;;;-3.49;78.63;99654.44;1817126;78;25659;-54
2021/01/12 07:02:57;;;;;;;61.43;27.67;;;;;;;-3.49;78.48;99644.69;1817514;78;25722;-42
2021/01/12 07:05:24;;;;;;;72.85;31.02;;;;;;;-3.49;78.51;99647.83;1813668;78;25654;-54
2021/01/12 07:07:53;;;;;;;65.00;29.72;;;;;;;-3.48;78.51;99646.80;1803492;78;25627;-55
2021/01/12 07:10:23;;;;;;;61.17;29.20;;;;;;;-3.47;78.56;99632.03;1811848;78;25701;-51
2021/01/12 07:12:51;;;;;;;;;;;;;;;-3.46;78.49;99630.97;1795183;79;25667;-50
2021/01/12 07:15:23;;;;;;;58.87;26.85;;;;;;;-3.44;78.64;99639.50;1788111;80;25635;-56
2021/01/12 07:17:55;;;;;;;66.55;30.45;;;;;;;-3.42;78.54;99633.98;1787894;80;26243;-43
2021/01/12 07:20:24;;;;;;;67.60;29.25;;;;;;;-3.40;78.44;99635.34;1787761;79;25596;-55
2021/01/12 07:23:09;;;;;;;60.98;29.30;;;;;;;-3.37;78.53;99632.77;1786902;80;25923;-54
2021/01/12 07:25:42;;;;;;;67.92;31.25;;;;;;;-3.33;78.54;99633.09;1796732;78;26243;-49
2021/01/12 07:28:23;;;;;;;59.05;27.02;;;;;;;-3.33;78.36;99621.20;1802684;79;26376;-55
2021/01/12 07:30:53;;;;;;;64.62;28.50;;;;;;;-3.32;78.31;99623.61;1804068;79;25576;-52
2021/01/12 07:33:24;;;;;;;71.85;29.95;;;;;;;-3.31;78.29;99616.47;1775268;79;25668;-51
2021/01/12 07:35:56;;;;;;;64.95;29.12;;;;;;;-3.29;78.34;99613.86;1804116;79;25893;-53
2021/01/12 07:38:29;;;;;;;61.70;29.57;;;;;;;-3.25;78.37;99611.55;1804017;79;25767;-53
2021/01/12 07:41:00;;;;;;;61.75;30.17;;;;;;;-3.22;78.45;99609.27;1804124;79;25530;-52
2021/01/12 07:43:28;;;;;;;69.37;31.70;;;;;;;-3.19;78.38;99604.80;1794856;77;25589;-55
2021/01/12 07:45:56;;;;;;;73.65;30.57;;;;;;;-3.15;78.02;99609.63;1794023;79;25639;-51
2021/01/12 07:48:24;;;;;;;63.55;30.32;;;;;;;-3.14;78.02;99601.99;1794117;79;25687;-51
2021/01/12 07:50:53;;;;;;;67.47;31.15;;;;;;;-3.13;78.03;99594.32;1793892;79;25644;-54
2021/01/12 07:53:20;;;;;;;64.07;28.95;;;;;;;-3.11;77.79;99589.63;1794041;79;30720;-47
2021/01/12 07:55:49;;;;;;;68.17;29.37;;;;;;;-3.09;77.88;99590.98;1794027;79;25577;-51
2021/01/12 07:58:18;;;;;;;66.28;29.90;;;;;;;-3.07;77.65;99579.63;1794072;79;25607;-51
2021/01/12 08:00:49;;;;;;;66.20;29.12;;;;;;;-3.05;77.73;99588.16;1794185;79;25859;-49
2021/01/12 08:03:17;;;;;;;64.77;29.20;;;;;;;-3.02;77.73;99572.31;1793997;79;25596;-48
2021/01/12 08:05:44;;;;;;;62.17;28.47;;;;;;;-3.00;77.80;99574.20;1778346;79;25824;-48
2021/01/12 08:08:11;;;;;;;64.87;27.70;;;;;;;-2.96;77.69;99568.73;1794015;79;25595;-47
2021/01/12 08:10:41;;;;;;;67.70;30.50;;;;;;;-2.93;77.36;99579.35;1794304;79;25646;-52
2021/01/12 08:13:15;;;;;;;64.77;29.55;;;;;;;-2.90;77.53;99574.91;1793856;79;25733;-49
2021/01/12 08:15:43;;;;;;;57.93;28.65;;;;;;;-2.85;77.50;99568.38;1793867;79;25583;-49
2021/01/12 08:18:15;;;;;;;;;;;;;;;-2.80;77.43;99567.68;1796691;79;25656;-46
2021/01/12 08:20:44;;;;;;;58.10;26.23;;;;;;;-2.75;77.11;99563.80;1793744;79;25620;-54
2021/01/12 08:23:18;;;;;;;58.10;27.42;;;;;;;-2.73;77.09;99565.15;1793957;79;25604;-50
2021/01/12 08:25:45;;;;;;;65.65;27.50;;;;;;;-2.70;76.73;99571.83;1793883;79;25893;-50
2021/01/12 08:28:13;;;;;;;71.10;29.25;;;;;;;-2.66;77.05;99557.05;1793855;79;25901;-49
2021/01/12 08:30:41;;;;;;;62.58;29.98;;;;;;;-2.64;76.69;99563.73;1794005;79;25627;-48
2021/01/12 08:33:27;;;;;;;64.47;29.42;;;;;;;-2.61;76.74;99558.46;1793783;79;25651;-53
2021/01/12 08:36:12;;;;;;;59.23;28.27;;;;;;;-2.56;76.78;99559.08;1794061;79;25619;-49
2021/01/12 08:38:45;;;;;;;61.55;29.18;;;;;;;-2.54;76.46;99556.45;1793941;79;25746;-44
2021/01/12 08:41:12;;;;;;;60.85;29.05;;;;;;;-2.49;76.66;99545.14;1793751;79;25694;-54
2021/01/12 08:43:41;;;;;;;63.28;28.12;;;;;;;-2.42;76.57;99547.64;1793802;79;25613;-52
2021/01/12 08:46:08;;;;;;;64.75;28.02;;;;;;;-2.39;76.31;99549.81;1792041;78;25610;-50
2021/01/12 08:48:36;;;;;;;57.35;26.77;;;;;;;-2.36;75.80;99550.13;1816616;78;25642;-54
2021/01/12 08:51:17;;;;;;;59.55;28.80;;;;;;;-2.33;76.02;99535.08;1823600;78;26711;-49
2021/01/12 08:53:46;;;;;;;59.93;26.27;;;;;;;-2.28;76.14;99537.02;1823409;78;25940;-47
2021/01/12 08:56:14;;;;;;;59.90;27.67;;;;;;;-2.24;75.60;99546.59;1823556;78;25635;-54
2021/01/12 08:58:43;;;;;;;56.10;25.85;;;;;;;-2.18;75.88;99531.03;1823566;78;25588;-51
2021/01/12 09:01:13;;;;;;;58.60;28.35;;;;;;;-2.14;75.75;99542.23;1823484;78;25842;-53
2021/01/12 09:03:43;;;;;;;67.10;29.00;;;;;;;-2.09;75.47;99534.36;1823661;78;27079;-55
2021/01/12 09:06:22;;;;;;;58.00;26.75;;;;;;;-2.03;75.77;99531.78;1823395;78;25528;-54
2021/01/12 09:08:51;;;;;;;58.60;27.05;;;;;;;-1.96;75.17;99533.73;1818481;78;26326;-51
2021/01/12 09:11:19;;;;;;;55.90;25.70;;;;;;;-1.94;75.12;99516.55;1791236;78;25594;-54
2021/01/12 09:13:46;;;;;;;59.60;25.92;;;;;;;-1.91;74.13;99527.17;1790886;80;26361;-54
2021/01/12 09:16:19;;;;;;;59.25;25.25;;;;;;;-1.91;74.34;99516.56;1791033;79;26194;-49
2021/01/12 09:18:45;;;;;;;55.43;25.05;;;;;;;-1.84;74.90;99509.77;1790945;80;25606;-53
2021/01/12 09:21:12;;;;;;;53.78;27.87;;;;;;;-1.77;74.75;99510.38;1790673;79;25572;-51
2021/01/12 09:23:41;;;;;;;57.23;27.35;;;;;;;-1.74;73.86;99505.91;1790742;80;25590;-55
2021/01/12 09:26:10;;;;;;;51.37;24.80;;;;;;;-1.71;73.97;99495.61;1791163;80;25709;-54
2021/01/12 09:28:39;;;;;;;54.43;24.27;;;;;;;-1.65;74.11;99491.19;1791086;80;26223;-52
2021/01/12 09:31:09;;;;;;;;;;;;;;;-1.57;74.26;99501.33;1793585;79;25619;-57
2021/01/12 09:33:39;;;;;;;54.05;25.92;;;;;;;-1.49;73.78;99492.15;1791015;80;34762;-56
2021/01/12 09:36:12;;;;;;;52.00;25.23;;;;;;;-1.40;73.95;99481.89;1790885;80;25837;-52
2021/01/12 09:38:43;;;;;;;49.85;23.65;;;;;;;-1.27;73.85;99474.87;1790965;80;25669;-50
2021/01/12 09:41:13;;;;;;;53.55;26.33;;;;;;;-1.13;73.64;99476.05;1790782;80;25707;-54
2021/01/12 09:43:41;;;;;;;51.33;25.45;;;;;;;-1.05;73.10;99469.50;1787096;79;25725;-52
2021/01/12 09:46:09;;;;;;;50.63;24.10;;;;;;;-1.00;73.07;99472.20;1784841;80;25601;-49
2021/01/12 09:48:37;;;;;;;45.63;24.15;;;;;;;-0.95;72.72;99476.76;1784800;80;25654;-52
2021/01/12 09:51:05;;;;;;;51.48;23.38;;;;;;;-0.91;73.04;99496.43;1784896;80;25628;-55
2021/01/12 09:53:32;;;;;;;52.78;23.62;;;;;;;-0.81;71.48;99472.61;1784602;80;26123;-54
2021/01/12 09:55:59;;;;;;;44.38;21.87;;;;;;;-0.67;71.53;99461.03;1797429;78;25627;-49
2021/01/12 09:58:27;;;;;;;50.40;23.90;;;;;;;-0.40;71.39;99457.50;1817380;78;25708;-48
2021/01/12 10:00:56;;;;;;;47.33;21.90;;;;;;;-0.08;71.77;99441.45;1750783;81;25726;-52
2021/01/12 10:03:23;;;;;;;41.77;22.30;;;;;;;0.33;70.15;99441.60;1751206;81;26432;-49
2021/01/12 10:05:50;;;;;;;48.35;21.73;;;;;;;0.66;71.00;99439.53;1760912;81;26289;-57
2021/01/12 10:08:16;;;;;;;45.40;22.07;;;;;;;1.01;70.78;99441.19;1760227;81;25860;-50
2021/01/12 10:10:43;;;;;;;42.93;22.73;;;;;;;1.37;69.33;99436.63;1760589;81;25769;-53
2021/01/12 10:13:10;;;;;;;45.15;22.65;;;;;;;1.75;71.19;99426.41;1760710;81;25640;-52
2021/01/12 10:15:38;;;;;;;36.53;21.17;;;;;;;2.40;67.85;99427.75;1760906;81;25985;-56
2021/01/12 10:18:07;;;;;;;41.75;21.80;;;;;;;2.72;67.85;99424.34;1761495;81;25786;-57
2021/01/12 10:20:34;;;;;;;41.28;22.62;;;;;;;3.08;68.38;99415.53;1761373;81;25623;-56
2021/01/12 10:23:01;;;;;;;42.75;22.25;;;;;;;3.50;67.85;99416.73;1761403;81;25606;-47
2021/01/12 10:25:28;;;;;;;40.17;22.60;;;;;;;3.81;65.36;99406.24;1761327;81;25654;-50
2021/01/12 10:27:56;;;;;;;44.83;23.50;;;;;;;3.71;63.30;99395.11;1761595;81;25679;-54
2021/01/12 10:30:24;;;;;;;44.60;22.15;;;;;;;3.36;60.71;99401.11;1761438;81;26688;-56
2021/01/12 10:32:51;;;;;;;40.60;22.02;;;;;;;2.96;61.37;99400.39;1761043;81;25789;-57
2021/01/12 10:35:18;;;;;;;40.83;18.92;;;;;;;2.78;61.91;99395.20;1761533;81;26302;-54
2021/01/12 10:37:46;;;;;;;42.95;21.73;;;;;;;2.56;62.36;99399.08;1761372;81;25521;-55
2021/01/12 10:40:14;;;;;;;38.88;20.70;;;;;;;2.56;63.12;99395.08;1761458;81;25599;-51
2021/01/12 10:42:43;;;;;;;39.18;20.72;;;;;;;2.61;61.92;99390.25;1751700;81;26196;-57
2021/01/12 10:45:12;;;;;;;36.68;20.50;;;;;;;2.40;61.91;99398.91;1761360;81;25698;-53
2021/01/12 10:47:45;;;;;;;42.90;23.40;;;;;;;2.18;62.88;99376.62;1752038;81;25936;-56
2021/01/12 10:50:19;;;;;;;41.28;20.68;;;;;;;2.10;63.42;99378.01;1761316;81;25684;-53
2021/01/12 10:52:46;;;;;;;37.55;19.42;;;;;;;2.12;62.77;99373.19;1761323;81;26374;-50
2021/01/12 10:55:14;;;;;;;39.78;19.87;;;;;;;2.14;63.78;99367.58;1761380;81;25775;-53
2021/01/12 10:57:45;;;;;;;38.00;19.98;;;;;;;2.21;63.06;99352.06;1761339;81;25659;-55
2021/01/12 11:00:15;;;;;;;38.00;20.88;;;;;;;2.12;63.08;99342.51;1761483;81;25615;-56
2021/01/12 11:02:42;;;;;;;44.05;21.62;;;;;;;1.99;63.09;99347.11;1761428;81;25682;-54
2021/01/12 11:05:11;;;;;;;38.65;19.25;;;;;;;1.84;63.34;99350.67;1761491;81;25763;-58
2021/01/12 11:07:42;;;;;;;37.43;21.10;;;;;;;1.73;63.82;99344.56;1751925;81;25990;-48
2021/01/12 11:10:10;;;;;;;41.13;21.85;;;;;;;1.62;64.25;99345.70;1761320;81;25707;-56
2021/01/12 11:12:38;;;;;;;41.18;19.82;;;;;;;1.43;62.37;99344.95;1761360;81;25837;-49
2021/01/12 11:15:07;;;;;;;35.50;18.37;;;;;;;1.26;63.41;99333.27;1761442;81;25713;-54
2021/01/12 11:17:36;;;;;;;37.78;20.25;;;;;;;1.11;64.10;99336.77;1761499;81;25683;-56
2021/01/12 11:20:06;;;;;;;36.20;18.17;;;;;;;1.07;65.06;99328.23;1751671;81;25824;-53
2021/01/12 11:22:33;;;;;;;38.67;19.67;;;;;;;1.05;65.05;99340.49;1761144;81;25671;-57
2021/01/12 11:25:05;;;;;;;39.33;19.45;;;;;;;1.08;65.31;99321.86;1761475;81;25615;-52